USA761 UZTT-UZST
Flight info
| Callsign | USA761 |
|---|---|
| Flight time | N/A |
| Altitude | 20000 |
| Route | KUFIM2A KUFIM DCT NETAT DCT TITAR DCT RONVU/K0494F210 DCT USETU DCT ARPIZ DCT LAVMI DCT FIZLE FIZLE2X |
| Aircraft | AT76/M-SDFGIRY/S |
Departure
| Time | 2026-04-14 12:54 |
|---|---|
| Airport | Tashkent International Airport (UZTT) |
Arrival
| Time | N/A |
|---|---|
| Airport | UZST |
| Time | Latitude | Longitude | Altitude | Speed | Heading |
|---|---|---|---|---|---|
| 2026-04-14 12:48 | 41.25228 | 69.26561 | 1422 ft | 0 kts | 180° |
| 2026-04-14 12:49 | 41.25219 | 69.26561 | 1422 ft | 2 kts | 180° |
| 2026-04-14 12:49 | 41.25198 | 69.26556 | 1422 ft | 4 kts | 210° |
| 2026-04-14 12:50 | 41.25191 | 69.26528 | 1422 ft | 5 kts | 271° |
| 2026-04-14 12:50 | 41.25201 | 69.26428 | 1422 ft | 8 kts | 270° |
| 2026-04-14 12:50 | 41.25202 | 69.26347 | 1422 ft | 9 kts | 270° |
| 2026-04-14 12:51 | 41.25202 | 69.26270 | 1422 ft | 6 kts | 270° |
| 2026-04-14 12:51 | 41.25230 | 69.26244 | 1422 ft | 6 kts | 0° |
| 2026-04-14 12:51 | 41.25262 | 69.26224 | 1422 ft | 5 kts | 299° |
| 2026-04-14 12:51 | 41.25281 | 69.26161 | 1422 ft | 7 kts | 292° |
| 2026-04-14 12:52 | 41.25302 | 69.26095 | 1422 ft | 8 kts | 292° |
| 2026-04-14 12:52 | 41.25339 | 69.26051 | 1422 ft | 8 kts | 341° |
| 2026-04-14 12:52 | 41.25389 | 69.26049 | 1422 ft | 7 kts | 14° |
| 2026-04-14 12:52 | 41.25418 | 69.26086 | 1422 ft | 5 kts | 59° |
| 2026-04-14 12:53 | 41.25433 | 69.26122 | 1422 ft | 9 kts | 71° |
| 2026-04-14 12:53 | 41.25444 | 69.26208 | 1422 ft | 18 kts | 81° |
| 2026-04-14 12:53 | 41.25487 | 69.26605 | 1423 ft | 87 kts | 82° |
| 2026-04-14 12:54 | 41.25791 | 69.29612 | 2468 ft | 133 kts | 75° |
| 2026-04-14 12:54 | 41.26026 | 69.31118 | 2936 ft | 147 kts | 79° |
| 2026-04-14 12:54 | 41.26186 | 69.32494 | 3299 ft | 158 kts | 81° |
| 2026-04-14 12:54 | 41.26355 | 69.34050 | 3607 ft | 179 kts | 81° |
| 2026-04-14 12:55 | 41.26326 | 69.35729 | 3965 ft | 194 kts | 111° |
| 2026-04-14 12:55 | 41.25371 | 69.36989 | 4348 ft | 208 kts | 154° |
| 2026-04-14 12:55 | 41.23905 | 69.37043 | 4722 ft | 223 kts | 196° |
| 2026-04-14 12:55 | 41.22705 | 69.35754 | 5087 ft | 234 kts | 235° |
| 2026-04-14 12:56 | 41.21809 | 69.33933 | 5488 ft | 238 kts | 232° |
| 2026-04-14 12:56 | 41.20797 | 69.32186 | 5867 ft | 241 kts | 229° |
| 2026-04-14 12:56 | 41.19748 | 69.30465 | 6241 ft | 244 kts | 228° |
| 2026-04-14 12:56 | 41.18660 | 69.28697 | 6622 ft | 246 kts | 228° |
| 2026-04-14 12:57 | 41.17589 | 69.26960 | 7030 ft | 246 kts | 228° |
| 2026-04-14 12:57 | 41.16513 | 69.25217 | 7452 ft | 245 kts | 228° |
| 2026-04-14 12:57 | 41.15434 | 69.23469 | 7876 ft | 244 kts | 228° |
| 2026-04-14 12:57 | 41.14355 | 69.21724 | 8300 ft | 244 kts | 228° |
| 2026-04-14 12:58 | 41.13290 | 69.20001 | 8720 ft | 243 kts | 228° |
| 2026-04-14 12:58 | 41.12213 | 69.18259 | 9146 ft | 243 kts | 228° |
| 2026-04-14 12:58 | 41.11151 | 69.16544 | 9565 ft | 242 kts | 228° |
| 2026-04-14 12:58 | 41.10082 | 69.14816 | 9923 ft | 245 kts | 228° |
| 2026-04-14 12:59 | 41.09000 | 69.13071 | 10249 ft | 248 kts | 228° |
| 2026-04-14 12:59 | 41.07923 | 69.11332 | 10568 ft | 251 kts | 228° |
| 2026-04-14 12:59 | 41.06786 | 69.09499 | 10901 ft | 253 kts | 229° |
| 2026-04-14 12:59 | 41.05668 | 69.07697 | 11226 ft | 254 kts | 229° |
| 2026-04-14 13:00 | 41.04545 | 69.05888 | 11549 ft | 256 kts | 229° |
| 2026-04-14 13:00 | 41.03422 | 69.04082 | 11871 ft | 257 kts | 229° |
| 2026-04-14 13:00 | 41.02280 | 69.02245 | 12197 ft | 258 kts | 229° |
| 2026-04-14 13:00 | 41.01145 | 69.00420 | 12520 ft | 258 kts | 229° |
| 2026-04-14 13:01 | 41.00018 | 68.98609 | 12839 ft | 258 kts | 229° |
| 2026-04-14 13:01 | 40.98865 | 68.96759 | 13165 ft | 259 kts | 229° |
| 2026-04-14 13:01 | 40.97729 | 68.94936 | 13486 ft | 259 kts | 230° |
| 2026-04-14 13:01 | 40.96582 | 68.93098 | 13810 ft | 259 kts | 230° |
| 2026-04-14 13:02 | 40.95436 | 68.91260 | 14134 ft | 259 kts | 230° |
| 2026-04-14 13:02 | 40.94290 | 68.89426 | 14457 ft | 258 kts | 231° |
| 2026-04-14 13:02 | 40.93150 | 68.87601 | 14779 ft | 258 kts | 231° |
| 2026-04-14 13:02 | 40.92008 | 68.85770 | 15102 ft | 258 kts | 231° |
| 2026-04-14 13:03 | 40.90879 | 68.83966 | 15420 ft | 258 kts | 231° |
| 2026-04-14 13:03 | 40.89731 | 68.82130 | 15744 ft | 258 kts | 231° |
| 2026-04-14 13:03 | 40.88592 | 68.80312 | 16067 ft | 258 kts | 231° |
| 2026-04-14 13:03 | 40.87447 | 68.78485 | 16392 ft | 258 kts | 231° |
| 2026-04-14 13:04 | 40.86309 | 68.76671 | 16715 ft | 258 kts | 231° |
| 2026-04-14 13:04 | 40.85158 | 68.74835 | 17041 ft | 258 kts | 231° |
| 2026-04-14 13:04 | 40.84030 | 68.73038 | 17360 ft | 258 kts | 231° |
| 2026-04-14 13:04 | 40.82862 | 68.71179 | 17690 ft | 258 kts | 231° |
| 2026-04-14 13:05 | 40.81726 | 68.69371 | 18011 ft | 258 kts | 231° |
| 2026-04-14 13:05 | 40.80555 | 68.67558 | 18337 ft | 259 kts | 230° |
| 2026-04-14 13:05 | 40.79375 | 68.65775 | 18660 ft | 259 kts | 230° |
| 2026-04-14 13:05 | 40.78199 | 68.64005 | 18981 ft | 259 kts | 230° |
| 2026-04-14 13:06 | 40.77011 | 68.62215 | 19305 ft | 259 kts | 230° |
| 2026-04-14 13:06 | 40.75825 | 68.60432 | 19628 ft | 259 kts | 230° |
| 2026-04-14 13:06 | 40.74641 | 68.58671 | 19896 ft | 261 kts | 229° |
| 2026-04-14 13:06 | 40.73385 | 68.56885 | 19944 ft | 270 kts | 228° |
| 2026-04-14 13:07 | 40.72082 | 68.55060 | 19952 ft | 279 kts | 228° |
| 2026-04-14 13:07 | 40.70732 | 68.53178 | 19952 ft | 286 kts | 228° |
| 2026-04-14 13:07 | 40.69343 | 68.51251 | 19951 ft | 291 kts | 228° |
| 2026-04-14 13:07 | 40.67937 | 68.49302 | 19949 ft | 294 kts | 228° |
| 2026-04-14 13:08 | 40.66516 | 68.47336 | 19949 ft | 297 kts | 228° |
| 2026-04-14 13:08 | 40.65092 | 68.45366 | 19948 ft | 299 kts | 228° |
| 2026-04-14 13:08 | 40.63654 | 68.43378 | 19947 ft | 301 kts | 228° |
| 2026-04-14 13:08 | 40.62207 | 68.41380 | 19947 ft | 302 kts | 228° |
| 2026-04-14 13:09 | 40.60735 | 68.39405 | 19947 ft | 303 kts | 227° |
| 2026-04-14 13:09 | 40.59259 | 68.37460 | 19946 ft | 303 kts | 226° |
| 2026-04-14 13:09 | 40.57751 | 68.35481 | 19946 ft | 304 kts | 226° |
| 2026-04-14 13:09 | 40.56253 | 68.33516 | 19949 ft | 304 kts | 226° |
| 2026-04-14 13:10 | 40.54740 | 68.31533 | 19949 ft | 305 kts | 226° |
| 2026-04-14 13:10 | 40.53249 | 68.29580 | 19949 ft | 305 kts | 226° |
| 2026-04-14 13:10 | 40.51746 | 68.27613 | 19949 ft | 305 kts | 226° |
| 2026-04-14 13:10 | 40.50240 | 68.25643 | 19949 ft | 305 kts | 226° |
| 2026-04-14 13:11 | 40.48744 | 68.23688 | 19949 ft | 305 kts | 226° |
| 2026-04-14 13:11 | 40.47225 | 68.21704 | 19949 ft | 305 kts | 226° |
| 2026-04-14 13:11 | 40.45724 | 68.19745 | 19949 ft | 306 kts | 226° |
| 2026-04-14 13:11 | 40.44214 | 68.17776 | 19948 ft | 306 kts | 226° |
| 2026-04-14 13:12 | 40.42715 | 68.15821 | 19948 ft | 306 kts | 226° |
| 2026-04-14 13:12 | 40.41190 | 68.13835 | 19948 ft | 306 kts | 226° |
| 2026-04-14 13:12 | 40.39695 | 68.11888 | 19948 ft | 306 kts | 226° |
| 2026-04-14 13:12 | 40.38184 | 68.09924 | 19948 ft | 306 kts | 226° |
| 2026-04-14 13:13 | 40.36668 | 68.07952 | 19948 ft | 306 kts | 226° |
| 2026-04-14 13:13 | 40.35160 | 68.05993 | 19948 ft | 306 kts | 226° |
| 2026-04-14 13:13 | 40.33655 | 68.04039 | 19948 ft | 305 kts | 226° |
| 2026-04-14 13:13 | 40.32158 | 68.02089 | 19948 ft | 305 kts | 226° |
| 2026-04-14 13:14 | 40.30648 | 68.00118 | 19948 ft | 305 kts | 226° |
| 2026-04-14 13:14 | 40.29147 | 67.98159 | 19947 ft | 305 kts | 226° |
| 2026-04-14 13:14 | 40.27658 | 67.96218 | 19947 ft | 305 kts | 226° |
| 2026-04-14 13:14 | 40.26157 | 67.94263 | 19947 ft | 305 kts | 226° |
| 2026-04-14 13:15 | 40.24636 | 67.92282 | 19947 ft | 305 kts | 226° |
| 2026-04-14 13:15 | 40.23123 | 67.90312 | 19947 ft | 305 kts | 226° |
| 2026-04-14 13:15 | 40.21629 | 67.88369 | 19949 ft | 305 kts | 226° |
| 2026-04-14 13:15 | 40.20129 | 67.86420 | 19950 ft | 305 kts | 226° |
| 2026-04-14 13:16 | 40.18632 | 67.84476 | 19952 ft | 305 kts | 226° |
| 2026-04-14 13:16 | 40.17123 | 67.82516 | 19955 ft | 305 kts | 226° |
| 2026-04-14 13:16 | 40.15637 | 67.80589 | 19958 ft | 305 kts | 226° |
| 2026-04-14 13:16 | 40.14136 | 67.78643 | 19961 ft | 305 kts | 226° |
| 2026-04-14 13:17 | 40.12618 | 67.76660 | 19964 ft | 305 kts | 227° |
| 2026-04-14 13:17 | 40.11129 | 67.74694 | 19967 ft | 305 kts | 226° |
| 2026-04-14 13:17 | 40.09641 | 67.72728 | 19969 ft | 306 kts | 226° |
| 2026-04-14 13:17 | 40.08146 | 67.70753 | 19971 ft | 306 kts | 227° |
| 2026-04-14 13:18 | 40.06658 | 67.68787 | 19972 ft | 306 kts | 227° |
| 2026-04-14 13:18 | 40.05159 | 67.66810 | 19973 ft | 306 kts | 227° |
| 2026-04-14 13:18 | 40.03671 | 67.64847 | 19973 ft | 306 kts | 226° |
| 2026-04-14 13:18 | 40.02169 | 67.62868 | 19973 ft | 306 kts | 227° |
| 2026-04-14 13:19 | 40.00680 | 67.60907 | 19973 ft | 306 kts | 227° |
| 2026-04-14 13:19 | 39.99183 | 67.58936 | 19973 ft | 306 kts | 227° |
| 2026-04-14 13:19 | 39.97680 | 67.56960 | 19972 ft | 306 kts | 226° |
| 2026-04-14 13:19 | 39.96186 | 67.54997 | 19972 ft | 306 kts | 227° |
| 2026-04-14 13:20 | 39.94662 | 67.52994 | 19972 ft | 306 kts | 227° |
| 2026-04-14 13:20 | 39.93283 | 67.51183 | 19972 ft | 306 kts | 227° |
| 2026-04-14 13:20 | 39.91771 | 67.49200 | 19972 ft | 306 kts | 227° |
| 2026-04-14 13:20 | 39.90259 | 67.47218 | 19972 ft | 306 kts | 227° |
| 2026-04-14 13:21 | 39.88770 | 67.45267 | 19973 ft | 306 kts | 226° |
| 2026-04-14 13:21 | 39.87246 | 67.43272 | 19973 ft | 306 kts | 226° |
| 2026-04-14 13:21 | 39.85760 | 67.41328 | 19968 ft | 307 kts | 226° |
| 2026-04-14 13:21 | 39.84248 | 67.39352 | 19961 ft | 307 kts | 226° |
| 2026-04-14 13:22 | 39.82750 | 67.37394 | 19955 ft | 307 kts | 226° |
| 2026-04-14 13:22 | 39.81243 | 67.35426 | 19948 ft | 307 kts | 226° |
| 2026-04-14 13:22 | 39.79738 | 67.33463 | 19944 ft | 307 kts | 226° |
| 2026-04-14 13:22 | 39.78234 | 67.31501 | 19938 ft | 308 kts | 226° |
| 2026-04-14 13:23 | 39.76725 | 67.29534 | 19931 ft | 308 kts | 226° |
| 2026-04-14 13:23 | 39.74968 | 67.27927 | 19900 ft | 313 kts | 202° |
| 2026-04-14 13:23 | 39.72845 | 67.27405 | 19926 ft | 315 kts | 190° |
| 2026-04-14 13:23 | 39.70673 | 67.27106 | 19921 ft | 316 kts | 188° |
| 2026-04-14 13:24 | 39.68483 | 67.26863 | 19919 ft | 316 kts | 187° |
| 2026-04-14 13:24 | 39.64108 | 67.26419 | 19917 ft | 316 kts | 187° |
| 2026-04-14 13:24 | 39.61916 | 67.26203 | 19916 ft | 316 kts | 187° |
| 2026-04-14 13:25 | 39.59714 | 67.25987 | 19916 ft | 316 kts | 187° |
| 2026-04-14 13:25 | 39.57527 | 67.25772 | 19915 ft | 316 kts | 187° |
| 2026-04-14 13:26 | 39.50973 | 67.25131 | 19912 ft | 317 kts | 187° |
| 2026-04-14 13:26 | 39.48756 | 67.24915 | 19912 ft | 317 kts | 187° |
| 2026-04-14 13:26 | 39.46936 | 67.24737 | 19911 ft | 316 kts | 187° |